sensor_id;sensor_type;location;lat;lon;timestamp;pressure;altitude;pressure_sealevel;temperature;humidity
740;BME280;354;42.694;23.336;2023-02-15T00:01:34;96483.22;;;1.95;100.00
740;BME280;354;42.694;23.336;2023-02-15T00:03:59;96503.59;;;2.00;100.00
740;BME280;354;42.694;23.336;2023-02-15T00:06:25;96510.31;;;2.02;100.00
740;BME280;354;42.694;23.336;2023-02-15T00:08:51;96510.56;;;1.99;100.00
740;BME280;354;42.694;23.336;2023-02-15T00:11:18;96497.00;;;1.96;100.00
740;BME280;354;42.694;23.336;2023-02-15T00:14:04;96510.00;;;1.96;100.00
740;BME280;354;42.694;23.336;2023-02-15T00:16:29;96520.50;;;1.94;100.00
740;BME280;354;42.694;23.336;2023-02-15T00:18:55;96517.63;;;1.97;100.00
740;BME280;354;42.694;23.336;2023-02-15T00:21:20;96522.00;;;1.97;100.00
740;BME280;354;42.694;23.336;2023-02-15T00:23:45;96524.38;;;2.00;100.00
740;BME280;354;42.694;23.336;2023-02-15T00:26:11;96521.50;;;2.03;100.00
740;BME280;354;42.694;23.336;2023-02-15T00:28:37;96513.53;;;1.95;100.00
740;BME280;354;42.694;23.336;2023-02-15T00:31:07;96521.47;;;1.93;100.00
740;BME280;354;42.694;23.336;2023-02-15T00:33:33;96525.13;;;1.91;100.00
740;BME280;354;42.694;23.336;2023-02-15T00:35:59;96526.66;;;1.93;100.00
740;BME280;354;42.694;23.336;2023-02-15T00:38:29;96528.53;;;1.91;100.00
740;BME280;354;42.694;23.336;2023-02-15T00:40:56;96520.63;;;1.93;100.00
740;BME280;354;42.694;23.336;2023-02-15T00:43:22;96523.34;;;1.91;100.00
740;BME280;354;42.694;23.336;2023-02-15T00:45:48;96527.16;;;1.87;100.00
740;BME280;354;42.694;23.336;2023-02-15T00:48:13;96528.06;;;1.86;100.00
740;BME280;354;42.694;23.336;2023-02-15T00:50:38;96525.38;;;1.88;100.00
740;BME280;354;42.694;23.336;2023-02-15T00:53:04;96517.69;;;1.86;100.00
740;BME280;354;42.694;23.336;2023-02-15T00:55:29;96516.84;;;1.76;100.00
740;BME280;354;42.694;23.336;2023-02-15T00:57:54;96518.97;;;1.71;100.00
740;BME280;354;42.694;23.336;2023-02-15T01:00:20;96523.72;;;1.66;100.00
740;BME280;354;42.694;23.336;2023-02-15T01:02:45;96526.84;;;1.69;100.00
740;BME280;354;42.694;23.336;2023-02-15T01:05:10;96519.56;;;1.63;100.00
740;BME280;354;42.694;23.336;2023-02-15T01:07:36;96526.84;;;1.69;100.00
740;BME280;354;42.694;23.336;2023-02-15T01:10:01;96500.16;;;1.57;100.00
740;BME280;354;42.694;23.336;2023-02-15T01:12:27;96495.69;;;1.48;100.00
740;BME280;354;42.694;23.336;2023-02-15T01:14:52;96517.94;;;1.62;100.00
740;BME280;354;42.694;23.336;2023-02-15T01:17:17;96512.56;;;1.54;100.00
740;BME280;354;42.694;23.336;2023-02-15T01:19:43;96518.16;;;1.59;100.00
740;BME280;354;42.694;23.336;2023-02-15T01:22:08;96514.31;;;1.53;100.00
740;BME280;354;42.694;23.336;2023-02-15T01:24:34;96514.06;;;1.56;100.00
740;BME280;354;42.694;23.336;2023-02-15T01:26:59;96506.78;;;1.50;100.00
740;BME280;354;42.694;23.336;2023-02-15T01:29:24;96498.19;;;1.50;100.00
740;BME280;354;42.694;23.336;2023-02-15T01:31:50;96506.66;;;1.52;100.00
740;BME280;354;42.694;23.336;2023-02-15T01:34:15;96499.00;;;1.50;100.00
740;BME280;354;42.694;23.336;2023-02-15T01:36:41;96507.59;;;1.51;100.00
740;BME280;354;42.694;23.336;2023-02-15T01:39:06;96502.28;;;1.52;100.00
740;BME280;354;42.694;23.336;2023-02-15T01:41:32;96497.38;;;1.49;100.00
740;BME280;354;42.694;23.336;2023-02-15T01:44:00;96499.25;;;1.47;100.00
740;BME280;354;42.694;23.336;2023-02-15T01:46:34;96483.13;;;1.44;100.00
740;BME280;354;42.694;23.336;2023-02-15T01:49:09;96493.31;;;1.56;100.00
740;BME280;354;42.694;23.336;2023-02-15T01:51:38;96473.94;;;1.40;100.00
740;BME280;354;42.694;23.336;2023-02-15T01:54:29;96492.53;;;1.45;100.00
740;BME280;354;42.694;23.336;2023-02-15T01:57:01;96487.03;;;1.38;100.00
740;BME280;354;42.694;23.336;2023-02-15T01:59:28;96487.03;;;1.38;100.00
740;BME280;354;42.694;23.336;2023-02-15T02:01:55;96490.50;;;1.48;100.00
740;BME280;354;42.694;23.336;2023-02-15T02:04:31;96483.94;;;1.44;100.00
740;BME280;354;42.694;23.336;2023-02-15T02:06:59;96473.34;;;1.36;100.00
740;BME280;354;42.694;23.336;2023-02-15T02:09:25;96485.94;;;1.41;100.00
740;BME280;354;42.694;23.336;2023-02-15T02:11:51;96480.56;;;1.33;100.00
740;BME280;354;42.694;23.336;2023-02-15T02:14:19;96490.13;;;1.32;100.00
740;BME280;354;42.694;23.336;2023-02-15T02:16:51;96493.63;;;1.31;100.00
740;BME280;354;42.694;23.336;2023-02-15T02:19:44;96493.75;;;1.29;100.00
740;BME280;354;42.694;23.336;2023-02-15T02:30:20;96497.91;;;1.21;100.00
740;BME280;354;42.694;23.336;2023-02-15T02:38:23;96504.00;;;1.31;100.00
740;BME280;354;42.694;23.336;2023-02-15T02:46:31;96498.31;;;1.37;100.00
740;BME280;354;42.694;23.336;2023-02-15T02:49:00;96495.31;;;1.32;100.00
740;BME280;354;42.694;23.336;2023-02-15T02:51:26;96500.50;;;1.32;100.00
740;BME280;354;42.694;23.336;2023-02-15T02:53:54;96506.00;;;1.39;100.00
740;BME280;354;42.694;23.336;2023-02-15T02:56:29;96512.56;;;1.43;100.00
740;BME280;354;42.694;23.336;2023-02-15T02:58:56;96513.03;;;1.48;100.00
740;BME280;354;42.694;23.336;2023-02-15T03:01:32;96508.28;;;1.53;100.00
740;BME280;354;42.694;23.336;2023-02-15T03:04:05;96490.78;;;1.45;100.00
740;BME280;354;42.694;23.336;2023-02-15T03:06:50;96510.06;;;1.52;100.00
740;BME280;354;42.694;23.336;2023-02-15T03:12:00;96530.81;;;1.84;100.00
740;BME280;354;42.694;23.336;2023-02-15T03:14:28;96518.41;;;1.88;100.00
740;BME280;354;42.694;23.336;2023-02-15T03:16:54;96524.50;;;1.98;100.00
740;BME280;354;42.694;23.336;2023-02-15T03:19:24;96508.97;;;2.08;100.00
740;BME280;354;42.694;23.336;2023-02-15T03:21:56;96500.94;;;2.11;100.00
740;BME280;354;42.694;23.336;2023-02-15T03:24:39;96524.31;;;2.32;100.00
740;BME280;354;42.694;23.336;2023-02-15T03:27:14;96517.13;;;2.24;100.00
740;BME280;354;42.694;23.336;2023-02-15T03:29:43;96526.38;;;2.38;100.00
740;BME280;354;42.694;23.336;2023-02-15T03:32:11;96532.13;;;2.42;100.00
740;BME280;354;42.694;23.336;2023-02-15T03:34:38;96527.66;;;2.44;100.00
740;BME280;354;42.694;23.336;2023-02-15T03:37:10;96537.00;;;2.56;100.00
740;BME280;354;42.694;23.336;2023-02-15T03:42:26;96524.16;;;2.54;100.00
740;BME280;354;42.694;23.336;2023-02-15T03:45:06;96521.59;;;2.64;100.00
740;BME280;354;42.694;23.336;2023-02-15T03:47:39;96522.41;;;2.64;100.00
740;BME280;354;42.694;23.336;2023-02-15T03:53:02;96515.50;;;2.75;100.00
740;BME280;354;42.694;23.336;2023-02-15T03:55:29;96515.50;;;2.75;100.00
740;BME280;354;42.694;23.336;2023-02-15T03:57:55;96514.00;;;2.82;100.00
740;BME280;354;42.694;23.336;2023-02-15T04:00:45;96518.09;;;2.84;100.00
740;BME280;354;42.694;23.336;2023-02-15T04:03:37;96500.84;;;2.74;100.00
740;BME280;354;42.694;23.336;2023-02-15T04:06:04;96515.94;;;2.89;100.00
740;BME280;354;42.694;23.336;2023-02-15T04:08:30;96525.78;;;2.86;100.00
740;BME280;354;42.694;23.336;2023-02-15T04:11:14;96525.13;;;2.94;100.00
740;BME280;354;42.694;23.336;2023-02-15T04:13:39;96531.03;;;3.05;100.00
740;BME280;354;42.694;23.336;2023-02-15T04:16:05;96533.38;;;3.08;100.00
740;BME280;354;42.694;23.336;2023-02-15T04:18:33;96534.50;;;3.15;100.00
740;BME280;354;42.694;23.336;2023-02-15T04:21:18;96535.44;;;3.14;100.00
740;BME280;354;42.694;23.336;2023-02-15T04:24:02;96535.69;;;3.11;100.00
740;BME280;354;42.694;23.336;2023-02-15T04:26:46;96542.00;;;3.18;100.00
740;BME280;354;42.694;23.336;2023-02-15T04:29:18;96549.81;;;3.18;100.00
740;BME280;354;42.694;23.336;2023-02-15T04:31:44;96547.91;;;3.21;100.00
740;BME280;354;42.694;23.336;2023-02-15T04:34:09;96549.66;;;3.10;100.00
740;BME280;354;42.694;23.336;2023-02-15T04:36:36;96548.16;;;3.17;100.00
740;BME280;354;42.694;23.336;2023-02-15T04:39:02;96560.91;;;3.21;100.00
740;BME280;354;42.694;23.336;2023-02-15T04:41:27;96565.84;;;3.14;100.00
740;BME280;354;42.694;23.336;2023-02-15T04:43:53;96550.88;;;3.06;100.00
740;BME280;354;42.694;23.336;2023-02-15T04:46:18;96552.84;;;3.24;100.00
740;BME280;354;42.694;23.336;2023-02-15T04:48:43;96556.16;;;3.26;100.00
740;BME280;354;42.694;23.336;2023-02-15T04:51:09;96545.75;;;3.26;100.00
740;BME280;354;42.694;23.336;2023-02-15T04:53:35;96559.41;;;3.28;100.00
740;BME280;354;42.694;23.336;2023-02-15T04:56:01;96561.06;;;3.29;100.00
740;BME280;354;42.694;23.336;2023-02-15T04:58:26;96555.72;;;3.21;100.00
740;BME280;354;42.694;23.336;2023-02-15T05:00:55;96568.59;;;3.32;100.00
740;BME280;354;42.694;23.336;2023-02-15T05:03:21;96567.50;;;3.34;100.00
740;BME280;354;42.694;23.336;2023-02-15T05:05:46;96552.16;;;3.22;100.00
740;BME280;354;42.694;23.336;2023-02-15T05:08:11;96564.72;;;3.16;100.00
740;BME280;354;42.694;23.336;2023-02-15T05:10:37;96564.19;;;3.23;100.00
740;BME280;354;42.694;23.336;2023-02-15T05:13:02;96573.38;;;3.27;100.00
740;BME280;354;42.694;23.336;2023-02-15T05:15:27;96573.66;;;3.33;100.00
740;BME280;354;42.694;23.336;2023-02-15T05:17:53;96578.34;;;3.30;100.00
740;BME280;354;42.694;23.336;2023-02-15T05:20:18;96560.91;;;3.21;100.00
740;BME280;354;42.694;23.336;2023-02-15T05:22:44;96580.66;;;3.33;100.00
740;BME280;354;42.694;23.336;2023-02-15T05:25:09;96570.78;;;3.27;100.00
740;BME280;354;42.694;23.336;2023-02-15T05:27:54;96573.34;;;3.17;100.00
740;BME280;354;42.694;23.336;2023-02-15T05:30:38;96576.25;;;3.24;100.00
740;BME280;354;42.694;23.336;2023-02-15T05:33:05;96595.19;;;3.35;100.00
740;BME280;354;42.694;23.336;2023-02-15T05:35:31;96604.34;;;3.30;100.00
740;BME280;354;42.694;23.336;2023-02-15T05:37:57;96600.88;;;3.29;100.00
740;BME280;354;42.694;23.336;2023-02-15T05:40:22;96593.50;;;3.34;100.00
740;BME280;354;42.694;23.336;2023-02-15T05:42:48;96600.91;;;3.39;100.00
740;BME280;354;42.694;23.336;2023-02-15T05:45:13;96592.47;;;3.56;100.00
740;BME280;354;42.694;23.336;2023-02-15T05:47:39;96608.63;;;3.50;100.00
740;BME280;354;42.694;23.336;2023-02-15T05:50:05;96585.63;;;3.55;100.00
740;BME280;354;42.694;23.336;2023-02-15T05:52:30;96601.81;;;3.78;100.00
740;BME280;354;42.694;23.336;2023-02-15T05:54:55;96590.03;;;3.64;100.00
740;BME280;354;42.694;23.336;2023-02-15T05:57:21;96605.13;;;3.80;100.00
740;BME280;354;42.694;23.336;2023-02-15T05:59:46;96567.56;;;3.54;100.00
740;BME280;354;42.694;23.336;2023-02-15T06:02:12;96602.66;;;3.79;100.00
740;BME280;354;42.694;23.336;2023-02-15T06:04:38;96587.84;;;3.69;100.00
740;BME280;354;42.694;23.336;2023-02-15T06:07:03;96605.38;;;3.77;100.00
740;BME280;354;42.694;23.336;2023-02-15T06:09:28;96605.25;;;3.79;100.00
740;BME280;354;42.694;23.336;2023-02-15T06:11:54;96606.47;;;3.84;100.00
740;BME280;354;42.694;23.336;2023-02-15T06:14:19;96603.78;;;3.86;100.00
740;BME280;354;42.694;23.336;2023-02-15T06:16:45;96591.28;;;3.70;100.00
740;BME280;354;42.694;23.336;2023-02-15T06:19:10;96603.47;;;3.89;100.00
740;BME280;354;42.694;23.336;2023-02-15T06:21:35;96596.50;;;3.89;100.00
740;BME280;354;42.694;23.336;2023-02-15T06:24:02;96607.47;;;3.93;100.00
740;BME280;354;42.694;23.336;2023-02-15T06:26:28;96613.75;;;4.00;100.00
740;BME280;354;42.694;23.336;2023-02-15T06:28:53;96615.28;;;4.03;100.00
740;BME280;354;42.694;23.336;2023-02-15T06:31:18;96587.88;;;3.99;100.00
740;BME280;354;42.694;23.336;2023-02-15T06:33:44;96599.50;;;3.94;100.00
740;BME280;354;42.694;23.336;2023-02-15T06:36:09;96612.28;;;4.07;100.00
740;BME280;354;42.694;23.336;2023-02-15T06:38:35;96603.22;;;4.21;100.00
740;BME280;354;42.694;23.336;2023-02-15T06:41:00;96615.97;;;4.34;100.00
740;BME280;354;42.694;23.336;2023-02-15T06:43:25;96586.94;;;4.19;100.00
740;BME280;354;42.694;23.336;2023-02-15T06:45:51;96613.91;;;4.37;100.00
740;BME280;354;42.694;23.336;2023-02-15T06:48:16;96613.09;;;4.46;100.00
740;BME280;354;42.694;23.336;2023-02-15T06:50:42;96620.78;;;4.29;100.00
740;BME280;354;42.694;23.336;2023-02-15T06:53:07;96608.28;;;4.22;100.00
740;BME280;354;42.694;23.336;2023-02-15T06:55:33;96614.47;;;4.41;100.00
740;BME280;354;42.694;23.336;2023-02-15T06:57:58;96613.47;;;4.61;100.00
740;BME280;354;42.694;23.336;2023-02-15T07:00:23;96613.84;;;4.66;100.00
740;BME280;354;42.694;23.336;2023-02-15T07:02:58;96600.72;;;4.58;100.00
740;BME280;354;42.694;23.336;2023-02-15T07:05:25;96614.16;;;4.73;100.00
740;BME280;354;42.694;23.336;2023-02-15T07:07:56;96586.97;;;4.75;100.00
740;BME280;354;42.694;23.336;2023-02-15T07:10:21;96608.94;;;4.73;100.00
740;BME280;354;42.694;23.336;2023-02-15T07:12:47;96605.47;;;4.82;100.00
740;BME280;354;42.694;23.336;2023-02-15T07:15:15;96613.94;;;4.94;100.00
740;BME280;354;42.694;23.336;2023-02-15T07:17:41;96617.84;;;5.17;100.00
740;BME280;354;42.694;23.336;2023-02-15T07:20:12;96616.97;;;5.26;100.00
740;BME280;354;42.694;23.336;2023-02-15T07:22:38;96619.19;;;5.21;100.00
740;BME280;354;42.694;23.336;2023-02-15T07:25:05;96617.19;;;5.43;100.00
740;BME280;354;42.694;23.336;2023-02-15T07:27:31;96628.75;;;5.40;100.00
740;BME280;354;42.694;23.336;2023-02-15T07:29:57;96621.13;;;5.19;100.00
740;BME280;354;42.694;23.336;2023-02-15T07:32:22;96598.03;;;5.24;100.00
740;BME280;354;42.694;23.336;2023-02-15T07:34:48;96603.03;;;5.18;100.00
740;BME280;354;42.694;23.336;2023-02-15T07:37:13;96607.28;;;5.46;100.00
740;BME280;354;42.694;23.336;2023-02-15T07:39:38;96609.53;;;5.32;100.00
740;BME280;354;42.694;23.336;2023-02-15T07:42:04;96608.75;;;5.49;100.00
740;BME280;354;42.694;23.336;2023-02-15T07:44:29;96607.63;;;5.34;100.00
740;BME280;354;42.694;23.336;2023-02-15T07:46:54;96613.25;;;5.39;100.00
740;BME280;354;42.694;23.336;2023-02-15T07:49:20;96610.34;;;5.32;100.00
740;BME280;354;42.694;23.336;2023-02-15T07:51:45;96608.44;;;5.34;100.00
740;BME280;354;42.694;23.336;2023-02-15T07:54:11;96605.06;;;5.24;100.00
740;BME280;354;42.694;23.336;2023-02-15T07:56:36;96587.34;;;4.90;100.00
740;BME280;354;42.694;23.336;2023-02-15T07:59:02;96601.44;;;4.97;100.00
740;BME280;354;42.694;23.336;2023-02-15T08:01:35;96600.38;;;5.27;100.00
740;BME280;354;42.694;23.336;2023-02-15T08:04:02;96597.78;;;5.55;100.00
740;BME280;354;42.694;23.336;2023-02-15T08:06:30;96606.50;;;5.64;100.00
740;BME280;354;42.694;23.336;2023-02-15T08:08:56;96600.38;;;5.27;100.00
740;BME280;354;42.694;23.336;2023-02-15T08:11:28;96606.63;;;5.07;100.00
740;BME280;354;42.694;23.336;2023-02-15T08:14:11;96608.81;;;5.12;100.00
740;BME280;354;42.694;23.336;2023-02-15T08:16:46;96585.22;;;5.03;100.00
740;BME280;354;42.694;23.336;2023-02-15T08:21:47;96609.03;;;5.28;100.00
740;BME280;354;42.694;23.336;2023-02-15T08:24:14;96582.59;;;5.13;100.00
740;BME280;354;42.694;23.336;2023-02-15T08:26:41;96608.66;;;5.13;100.00
740;BME280;354;42.694;23.336;2023-02-15T08:29:07;96595.22;;;5.08;100.00
740;BME280;354;42.694;23.336;2023-02-15T08:31:33;96617.16;;;5.15;100.00
740;BME280;354;42.694;23.336;2023-02-15T08:33:59;96610.31;;;5.14;100.00
740;BME280;354;42.694;23.336;2023-02-15T08:36:29;96604.53;;;5.48;100.00
740;BME280;354;42.694;23.336;2023-02-15T08:39:00;96610.50;;;5.58;100.00
740;BME280;354;42.694;23.336;2023-02-15T08:41:28;96600.69;;;5.70;100.00
740;BME280;354;42.694;23.336;2023-02-15T08:43:56;96615.28;;;5.63;100.00
740;BME280;354;42.694;23.336;2023-02-15T08:46:24;96615.09;;;5.74;100.00
740;BME280;354;42.694;23.336;2023-02-15T08:48:51;96608.91;;;5.75;100.00
740;BME280;354;42.694;23.336;2023-02-15T08:51:19;96608.00;;;5.66;100.00
740;BME280;354;42.694;23.336;2023-02-15T08:53:47;96606.22;;;5.94;100.00
740;BME280;354;42.694;23.336;2023-02-15T08:56:18;96610.31;;;5.69;100.00
740;BME280;354;42.694;23.336;2023-02-15T08:58:44;96601.81;;;5.95;100.00
740;BME280;354;42.694;23.336;2023-02-15T09:01:18;96611.94;;;6.33;100.00
740;BME280;354;42.694;23.336;2023-02-15T09:03:49;96622.69;;;6.30;100.00
740;BME280;354;42.694;23.336;2023-02-15T09:06:16;96616.72;;;6.20;100.00
740;BME280;354;42.694;23.336;2023-02-15T09:08:42;96617.69;;;6.37;100.00
740;BME280;354;42.694;23.336;2023-02-15T09:11:11;96624.94;;;6.25;100.00
740;BME280;354;42.694;23.336;2023-02-15T09:13:38;96620.09;;;6.13;100.00
740;BME280;354;42.694;23.336;2023-02-15T09:16:06;96602.78;;;5.94;100.00
740;BME280;354;42.694;23.336;2023-02-15T09:18:34;96607.03;;;5.95;100.00
740;BME280;354;42.694;23.336;2023-02-15T09:21:05;96608.06;;;6.02;100.00
740;BME280;354;42.694;23.336;2023-02-15T09:23:31;96601.22;;;6.01;100.00
740;BME280;354;42.694;23.336;2023-02-15T09:25:56;96620.00;;;6.40;100.00
740;BME280;354;42.694;23.336;2023-02-15T09:28:22;96618.78;;;6.52;100.00
740;BME280;354;42.694;23.336;2023-02-15T09:30:47;96606.16;;;6.66;100.00
740;BME280;354;42.694;23.336;2023-02-15T09:33:12;96616.09;;;7.14;100.00
740;BME280;354;42.694;23.336;2023-02-15T09:35:38;96600.91;;;7.18;100.00
740;BME280;354;42.694;23.336;2023-02-15T09:38:03;96615.81;;;7.59;100.00
740;BME280;354;42.694;23.336;2023-02-15T09:40:33;96611.88;;;7.55;99.25
740;BME280;354;42.694;23.336;2023-02-15T09:46:41;96602.50;;;7.45;96.98
740;BME280;354;42.694;23.336;2023-02-15T09:48:48;96584.47;;;7.42;96.61
740;BME280;354;42.694;23.336;2023-02-15T09:51:36;96611.81;;;7.81;94.34
740;BME280;354;42.694;23.336;2023-02-15T09:57:23;96602.50;;;7.45;95.07
740;BME280;354;42.694;23.336;2023-02-15T10:08:31;96607.47;;;7.22;94.83
740;BME280;354;42.694;23.336;2023-02-15T10:14:33;96604.41;;;7.26;96.54
740;BME280;354;42.694;23.336;2023-02-15T10:17:19;96593.56;;;6.87;97.44
740;BME280;354;42.694;23.336;2023-02-15T10:28:06;96588.06;;;7.91;91.93
740;BME280;354;42.694;23.336;2023-02-15T10:33:02;96584.63;;;7.32;91.47
740;BME280;354;42.694;23.336;2023-02-15T10:35:37;96577.44;;;7.34;93.02
740;BME280;354;42.694;23.336;2023-02-15T10:38:23;96559.44;;;7.31;92.76
740;BME280;354;42.694;23.336;2023-02-15T10:41:12;96566.78;;;7.27;92.27
740;BME280;354;42.694;23.336;2023-02-15T10:44:01;96572.88;;;7.02;94.87
740;BME280;354;42.694;23.336;2023-02-15T10:49:51;96568.13;;;6.71;97.94
740;BME280;354;42.694;23.336;2023-02-15T10:52:46;96563.19;;;6.68;100.00
740;BME280;354;42.694;23.336;2023-02-15T11:04:13;96556.31;;;6.67;100.00
740;BME280;354;42.694;23.336;2023-02-15T11:06:49;96555.56;;;6.49;100.00
740;BME280;354;42.694;23.336;2023-02-15T11:09:18;96537.72;;;6.44;100.00
740;BME280;354;42.694;23.336;2023-02-15T11:11:49;96557.09;;;6.16;100.00
740;BME280;354;42.694;23.336;2023-02-15T11:17:04;96541.94;;;6.01;100.00
740;BME280;354;42.694;23.336;2023-02-15T11:19:34;96558.22;;;5.95;100.00
740;BME280;354;42.694;23.336;2023-02-15T11:22:03;96549.31;;;6.24;100.00
740;BME280;354;42.694;23.336;2023-02-15T11:24:31;96547.72;;;6.49;100.00
740;BME280;354;42.694;23.336;2023-02-15T11:27:00;96547.75;;;6.57;100.00
740;BME280;354;42.694;23.336;2023-02-15T11:29:37;96537.75;;;6.52;100.00
740;BME280;354;42.694;23.336;2023-02-15T11:32:17;96551.75;;;6.69;100.00
740;BME280;354;42.694;23.336;2023-02-15T11:34:58;96548.13;;;6.62;99.58
740;BME280;354;42.694;23.336;2023-02-15T11:40:02;96554.66;;;6.40;100.00
740;BME280;354;42.694;23.336;2023-02-15T11:42:31;96534.28;;;6.00;100.00
740;BME280;354;42.694;23.336;2023-02-15T11:45:19;96545.69;;;5.99;100.00
740;BME280;354;42.694;23.336;2023-02-15T11:47:47;96532.47;;;6.18;100.00
740;BME280;354;42.694;23.336;2023-02-15T11:50:24;96537.75;;;6.26;100.00
740;BME280;354;42.694;23.336;2023-02-15T11:52:52;96531.94;;;6.15;100.00
740;BME280;354;42.694;23.336;2023-02-15T11:55:21;96519.41;;;6.18;100.00
740;BME280;354;42.694;23.336;2023-02-15T12:00:34;96487.31;;;6.08;100.00
740;BME280;354;42.694;23.336;2023-02-15T12:03:07;96504.94;;;6.06;100.00
740;BME280;354;42.694;23.336;2023-02-15T12:05:36;96507.00;;;6.20;100.00
740;BME280;354;42.694;23.336;2023-02-15T12:08:12;96505.22;;;6.03;100.00
740;BME280;354;42.694;23.336;2023-02-15T12:11:06;96499.13;;;5.94;100.00
740;BME280;354;42.694;23.336;2023-02-15T12:13:33;96498.38;;;6.02;100.00
740;BME280;354;42.694;23.336;2023-02-15T12:16:05;96490.75;;;6.08;100.00
740;BME280;354;42.694;23.336;2023-02-15T12:18:42;96478.72;;;6.16;100.00
740;BME280;354;42.694;23.336;2023-02-15T12:21:39;96489.22;;;6.24;100.00
740;BME280;354;42.694;23.336;2023-02-15T12:24:25;96470.94;;;6.24;100.00
740;BME280;354;42.694;23.336;2023-02-15T12:27:01;96494.28;;;6.25;100.00
740;BME280;354;42.694;23.336;2023-02-15T12:29:30;96478.94;;;6.22;100.00
740;BME280;354;42.694;23.336;2023-02-15T12:31:56;96490.28;;;6.13;100.00
740;BME280;354;42.694;23.336;2023-02-15T12:34:29;96476.38;;;6.04;100.00
740;BME280;354;42.694;23.336;2023-02-15T12:36:57;96479.84;;;6.13;100.00
740;BME280;354;42.694;23.336;2023-02-15T12:39:27;96479.78;;;6.05;100.00
740;BME280;354;42.694;23.336;2023-02-15T12:42:00;96463.06;;;5.98;100.00
740;BME280;354;42.694;23.336;2023-02-15T12:44:28;96472.69;;;5.97;100.00
740;BME280;354;42.694;23.336;2023-02-15T12:49:34;96466.00;;;5.95;100.00
740;BME280;354;42.694;23.336;2023-02-15T12:54:43;96454.50;;;6.05;100.00
740;BME280;354;42.694;23.336;2023-02-15T12:59:56;96459.84;;;6.04;100.00
740;BME280;354;42.694;23.336;2023-02-15T13:02:28;96457.66;;;6.17;100.00
740;BME280;354;42.694;23.336;2023-02-15T13:04:56;96431.06;;;5.96;100.00
740;BME280;354;42.694;23.336;2023-02-15T13:07:25;96456.66;;;6.10;100.00
740;BME280;354;42.694;23.336;2023-02-15T13:09:54;96429.03;;;5.90;100.00
740;BME280;354;42.694;23.336;2023-02-15T13:12:25;96422.19;;;5.89;100.00
740;BME280;354;42.694;23.336;2023-02-15T13:14:54;96454.69;;;6.12;100.00
740;BME280;354;42.694;23.336;2023-02-15T13:17:30;96442.16;;;6.16;100.00
740;BME280;354;42.694;23.336;2023-02-15T13:20:22;96440.59;;;6.31;100.00
740;BME280;354;42.694;23.336;2023-02-15T13:22:50;96446.63;;;6.31;100.00
740;BME280;354;42.694;23.336;2023-02-15T13:25:19;96439.41;;;6.25;100.00
740;BME280;354;42.694;23.336;2023-02-15T13:27:50;96428.25;;;6.15;100.00
740;BME280;354;42.694;23.336;2023-02-15T13:30:30;96451.56;;;6.34;100.00
740;BME280;354;42.694;23.336;2023-02-15T13:38:46;96447.59;;;6.22;100.00
740;BME280;354;42.694;23.336;2023-02-15T13:41:27;96415.19;;;6.15;100.00
740;BME280;354;42.694;23.336;2023-02-15T13:44:07;96451.56;;;6.34;100.00
740;BME280;354;42.694;23.336;2023-02-15T13:52:00;96464.28;;;6.29;100.00
740;BME280;354;42.694;23.336;2023-02-15T13:54:49;96463.00;;;6.33;100.00
740;BME280;354;42.694;23.336;2023-02-15T13:57:41;96465.34;;;6.19;100.00
740;BME280;354;42.694;23.336;2023-02-15T14:19:52;96477.25;;;5.95;100.00
740;BME280;354;42.694;23.336;2023-02-15T14:22:36;96464.41;;;5.84;100.00
740;BME280;354;42.694;23.336;2023-02-15T14:31:06;96450.94;;;5.53;100.00
740;BME280;354;42.694;23.336;2023-02-15T14:33:39;96481.28;;;5.72;100.00
740;BME280;354;42.694;23.336;2023-02-15T14:36:07;96462.13;;;5.63;100.00
740;BME280;354;42.694;23.336;2023-02-15T14:46:52;96487.63;;;5.69;100.00
740;BME280;354;42.694;23.336;2023-02-15T15:02:25;96479.03;;;5.41;100.00
740;BME280;354;42.694;23.336;2023-02-15T15:05:01;96485.66;;;5.36;100.00
740;BME280;354;42.694;23.336;2023-02-15T15:07:51;96445.31;;;5.12;100.00
740;BME280;354;42.694;23.336;2023-02-15T15:15:38;96474.63;;;5.24;100.00
740;BME280;354;42.694;23.336;2023-02-15T15:18:10;96473.84;;;5.14;100.00
740;BME280;354;42.694;23.336;2023-02-15T15:20:55;96469.91;;;5.10;100.00
740;BME280;354;42.694;23.336;2023-02-15T15:25:56;96487.72;;;5.14;100.00
740;BME280;354;42.694;23.336;2023-02-15T15:33:54;96494.94;;;5.02;100.00
740;BME280;354;42.694;23.336;2023-02-15T15:45:35;96495.88;;;4.74;100.00
740;BME280;354;42.694;23.336;2023-02-15T15:48:32;96504.94;;;4.70;100.00
740;BME280;354;42.694;23.336;2023-02-15T15:51:03;96503.59;;;4.66;100.00
740;BME280;354;42.694;23.336;2023-02-15T15:53:34;96495.66;;;4.58;100.00
740;BME280;354;42.694;23.336;2023-02-15T15:56:08;96471.88;;;4.33;100.00
740;BME280;354;42.694;23.336;2023-02-15T15:58:41;96489.72;;;4.28;100.00
740;BME280;354;42.694;23.336;2023-02-15T16:01:09;96501.22;;;4.35;100.00
740;BME280;354;42.694;23.336;2023-02-15T16:03:36;96492.19;;;4.30;100.00
740;BME280;354;42.694;23.336;2023-02-15T16:06:02;96498.50;;;4.27;100.00
740;BME280;354;42.694;23.336;2023-02-15T16:08:32;96508.09;;;4.27;100.00
740;BME280;354;42.694;23.336;2023-02-15T16:11:00;96503.59;;;4.19;100.00
740;BME280;354;42.694;23.336;2023-02-15T16:13:33;96501.00;;;4.09;100.00
740;BME280;354;42.694;23.336;2023-02-15T16:15:59;96515.38;;;4.13;100.00
740;BME280;354;42.694;23.336;2023-02-15T16:18:26;96512.22;;;4.10;100.00
740;BME280;354;42.694;23.336;2023-02-15T16:21:01;96517.44;;;4.10;100.00
740;BME280;354;42.694;23.336;2023-02-15T16:26:07;96513.19;;;3.99;100.00
740;BME280;354;42.694;23.336;2023-02-15T16:28:35;96502.81;;;3.80;100.00
740;BME280;354;42.694;23.336;2023-02-15T16:31:06;96503.38;;;3.74;100.00
740;BME280;354;42.694;23.336;2023-02-15T16:33:36;96501.16;;;3.79;100.00
740;BME280;354;42.694;23.336;2023-02-15T16:36:03;96514.56;;;3.93;100.00
740;BME280;354;42.694;23.336;2023-02-15T16:41:08;96519.38;;;3.79;100.00
740;BME280;354;42.694;23.336;2023-02-15T16:43:36;96503.78;;;3.69;100.00